Pagrindinis puslapis
METAR-TAF:

METAR-TAF

Oro uostai :

Nakhon Ratchasima, Tailandas

platuma: 14-56-58N, ilguma: 102-18-45E, Aukštis: 233 m

Dabartinis oras

Ataskaita buvo paskelbta 28 minutes, ne 12:00 UTC
Ramus vėjas
Temperatūra 24°C
Drėgmė 78%
Slėgis 1013 hPa
Matomumas 10 km arba daugiau
nėra debesų žemiau 1500 m ir nėra kamuolinių lietaus debesų

METAR: VTUQ 151200Z 00000KT CAVOK 24/20 Q1013 NOSIG

Laikas: 19:28 (12:28 UTC)

Prognozė

Ataskaita buvo paskelbta 1 valandą ir 28 minutes, ne 11:00 UTC
Prognozė galioja nuo 15 metu 12 UTC su 16 metu 12 UTC
Vėjas 4 kt iš Rytų
Matomumas: 9000 m
Tapsmas
nuo 15 metu 21 UTC su 15 metu 23 UTC
Matomumas: 5000 m
rūkana
Tapsmas
nuo 16 metu 01 UTC su 16 metu 03 UTC
Matomumas: 9000 m

TAF: VTUQ 151100Z 1512/1612 08004KT 9000 NSC BECMG 1521/1523 5000 BR BECMG 1601/1603 9000 NSW

Orai ataskaitas ir orų prognozės (METAR, TAF).

turimą stotys yra geltonos ir raudonos taškus žemėlapyje.

Perkelti pele per norėdami pamatyti stoties vardą.

Tada spustelėkite, norėdami matyti oro stebėjimo ir prognozės.

Norėdami pakeisti žemėlapį: spustelėkite ant žalios mygtukų su juodo kryžiaus žemyn,; žalią mygtuką su brūkšneliu, jei norite nutolinti; arba žalių rodyklių gretimoms žemėlapius.


METAR-TAF: